createdAt,value
2018-02-19T00:01:28.475Z,15.60
2018-02-19T00:03:56.097Z,16.87
2018-02-19T00:06:23.753Z,18.97
2018-02-19T00:08:51.565Z,20.23
2018-02-19T00:11:19.131Z,16.67
2018-02-19T00:13:49.561Z,17.70
2018-02-19T00:16:17.130Z,17.17
2018-02-19T00:18:44.707Z,16.63
2018-02-19T00:21:12.254Z,14.37
2018-02-19T00:23:39.865Z,17.47
2018-02-19T00:26:07.506Z,17.10
2018-02-19T00:28:35.247Z,16.73
2018-02-19T00:31:03.278Z,17.47
2018-02-19T00:33:30.955Z,18.07
2018-02-19T00:35:58.630Z,15.57
2018-02-19T00:38:26.221Z,15.90
2018-02-19T00:40:53.880Z,16.20
2018-02-19T00:43:21.509Z,16.23
2018-02-19T00:45:49.507Z,14.50
2018-02-19T00:48:17.066Z,17.83
2018-02-19T00:50:44.700Z,16.60
2018-02-19T00:53:12.920Z,15.23
2018-02-19T00:55:40.474Z,17.80
2018-02-19T00:58:08.119Z,16.87
2018-02-19T01:00:35.935Z,16.40
2018-02-19T01:03:03.521Z,14.70
2018-02-19T01:05:31.491Z,29.00
2018-02-19T01:07:59.049Z,18.17
2018-02-19T01:10:27.165Z,18.17
2018-02-19T01:12:54.899Z,17.03
2018-02-19T01:15:22.582Z,16.43
2018-02-19T01:17:50.470Z,18.10
2018-02-19T01:20:18.079Z,16.73
2018-02-19T01:22:45.615Z,22.50
2018-02-19T01:25:13.191Z,17.13
2018-02-19T01:27:40.748Z,19.47
2018-02-19T01:30:08.746Z,17.10
2018-02-19T01:32:36.443Z,18.50
2018-02-19T01:35:04.041Z,18.10
2018-02-19T01:37:32.045Z,20.00
2018-02-19T01:39:59.707Z,16.50
2018-02-19T01:42:27.292Z,17.90
2018-02-19T01:44:54.921Z,20.67
2018-02-19T01:47:22.577Z,20.33
2018-02-19T01:50:02.117Z,16.20
2018-02-19T01:52:29.820Z,17.00
2018-02-19T01:54:57.411Z,19.80
2018-02-19T01:57:24.962Z,22.73
2018-02-19T01:59:52.957Z,19.93
2018-02-19T02:02:20.831Z,18.53
2018-02-19T02:04:48.511Z,18.87
2018-02-19T02:07:16.211Z,16.70
2018-02-19T02:09:43.785Z,18.80
2018-02-19T02:12:11.478Z,19.00
2018-02-19T02:14:39.139Z,16.57
2018-02-19T02:17:06.796Z,18.77
2018-02-19T02:19:34.433Z,19.87
2018-02-19T02:22:02.430Z,18.20
2018-02-19T02:24:29.963Z,20.50
2018-02-19T02:26:57.776Z,18.60
2018-02-19T02:29:25.311Z,18.87
2018-02-19T02:31:52.988Z,18.17
2018-02-19T02:34:20.617Z,24.77
2018-02-19T02:36:48.421Z,17.10
2018-02-19T02:39:15.981Z,20.93
2018-02-19T02:41:43.676Z,19.33
2018-02-19T02:44:14.267Z,19.20
2018-02-19T02:46:41.826Z,19.10
2018-02-19T02:49:09.431Z,21.37
2018-02-19T02:51:37.157Z,22.40
2018-02-19T02:54:04.757Z,19.70
2018-02-19T02:56:32.322Z,19.17
2018-02-19T02:58:59.874Z,19.13
2018-02-19T03:01:27.563Z,22.73
2018-02-19T03:03:55.167Z,20.13
2018-02-19T03:06:22.688Z,20.60
2018-02-19T03:08:50.302Z,21.27
2018-02-19T03:11:17.958Z,19.37
2018-02-19T03:13:45.506Z,23.03
2018-02-19T03:16:13.144Z,19.80
2018-02-19T03:18:40.875Z,24.10
2018-02-19T03:21:08.435Z,19.20
2018-02-19T03:23:36.071Z,27.00
2018-02-19T03:26:03.726Z,18.03
2018-02-19T03:28:32.786Z,20.23
2018-02-19T03:31:00.352Z,19.30
2018-02-19T03:33:28.383Z,21.70
2018-02-19T03:35:56.040Z,18.77
2018-02-19T03:38:23.708Z,17.60
2018-02-19T03:40:51.333Z,20.13
2018-02-19T03:43:19.278Z,19.77
2018-02-19T03:45:46.874Z,21.20
2018-02-19T03:48:14.602Z,19.30
2018-02-19T03:50:42.182Z,21.77
2018-02-19T03:53:09.899Z,19.87
2018-02-19T03:55:37.586Z,17.67
2018-02-19T03:58:05.166Z,19.93
2018-02-19T04:00:32.715Z,17.60
2018-02-19T04:03:00.719Z,19.23
2018-02-19T04:05:37.866Z,22.00
2018-02-19T04:08:05.847Z,19.80
2018-02-19T04:10:33.520Z,20.47
2018-02-19T04:13:01.223Z,18.03
2018-02-19T04:15:28.905Z,20.73
2018-02-19T04:17:56.540Z,18.87
2018-02-19T04:20:24.164Z,23.60
2018-02-19T04:22:51.810Z,16.77
2018-02-19T04:25:19.972Z,18.40
2018-02-19T04:27:47.950Z,19.80
2018-02-19T04:30:15.650Z,20.93
2018-02-19T04:32:44.332Z,20.53
2018-02-19T04:35:11.999Z,16.73
2018-02-19T04:37:44.376Z,21.53
2018-02-19T04:40:12.410Z,23.07
2018-02-19T04:42:40.058Z,18.03
2018-02-19T04:45:18.474Z,20.67
2018-02-19T04:47:46.231Z,19.33
2018-02-19T04:50:13.897Z,18.30
2018-02-19T04:52:41.438Z,22.17
2018-02-19T04:55:09.490Z,20.83
2018-02-19T04:57:37.075Z,20.13
2018-02-19T05:00:04.591Z,16.43
2018-02-19T05:02:32.418Z,17.83
2018-02-19T05:05:00.083Z,22.33
2018-02-19T05:07:32.518Z,20.23
2018-02-19T05:10:00.101Z,20.20
2018-02-19T05:12:27.655Z,19.87
2018-02-19T05:14:55.221Z,20.97
2018-02-19T05:17:23.120Z,22.67
2018-02-19T05:19:50.743Z,20.40
2018-02-19T05:22:18.418Z,17.87
2018-02-19T05:24:46.280Z,21.00
2018-02-19T05:27:13.938Z,24.00
2018-02-19T05:29:41.577Z,18.63
2018-02-19T05:32:09.229Z,17.93
2018-02-19T05:34:37.593Z,22.40
2018-02-19T05:37:05.254Z,18.33
2018-02-19T05:39:32.839Z,17.37
2018-02-19T05:42:00.420Z,21.53
2018-02-19T05:44:27.947Z,20.70
2018-02-19T05:46:56.781Z,16.47
2018-02-19T05:49:24.358Z,21.23
2018-02-19T05:51:51.995Z,17.23
2018-02-19T05:54:20.304Z,19.50
2018-02-19T05:56:47.983Z,19.10
2018-02-19T05:59:20.327Z,18.37
2018-02-19T06:01:47.940Z,22.63
2018-02-19T06:04:15.725Z,19.53
2018-02-19T06:06:43.274Z,16.53
2018-02-19T06:09:10.959Z,17.97
2018-02-19T06:11:38.603Z,21.40
2018-02-19T06:14:06.264Z,19.77
2018-02-19T06:16:33.932Z,15.37
2018-02-19T06:19:01.560Z,19.20
2018-02-19T06:21:29.264Z,19.27
2018-02-19T06:24:02.222Z,17.70
2018-02-19T06:26:29.895Z,19.43
2018-02-19T06:28:57.523Z,18.07
2018-02-19T06:31:25.078Z,17.37
2018-02-19T06:33:53.124Z,20.03
2018-02-19T06:36:20.721Z,18.80
2018-02-19T06:38:48.245Z,18.63
2018-02-19T06:41:20.333Z,17.60
2018-02-19T06:43:48.567Z,16.77
2018-02-19T06:46:16.130Z,17.73
2018-02-19T06:48:43.733Z,18.57
2018-02-19T06:51:11.262Z,19.90
2018-02-19T06:53:38.898Z,16.63
2018-02-19T06:56:06.543Z,18.57
2018-02-19T06:58:34.198Z,17.53
2018-02-19T07:01:01.867Z,18.83
2018-02-19T07:03:29.503Z,17.60
2018-02-19T07:05:57.126Z,18.27
2018-02-19T07:08:24.860Z,21.10
2018-02-19T07:10:52.491Z,16.97
2018-02-19T07:13:20.110Z,17.03
2018-02-19T07:15:47.967Z,17.77
2018-02-19T07:18:15.519Z,15.97
2018-02-19T07:20:43.131Z,15.80
2018-02-19T07:23:10.818Z,17.47
2018-02-19T07:25:38.481Z,16.67
2018-02-19T07:28:06.124Z,17.00
2018-02-19T07:30:33.828Z,18.03
2018-02-19T07:33:01.449Z,20.40
2018-02-19T07:35:29.099Z,19.53
2018-02-19T07:37:56.794Z,16.77
2018-02-19T07:40:24.584Z,18.20
2018-02-19T07:42:52.128Z,17.67
2018-02-19T07:45:20.119Z,19.53
2018-02-19T07:47:48.044Z,18.03
2018-02-19T07:50:15.742Z,15.60
2018-02-19T07:52:43.423Z,19.40
2018-02-19T07:55:11.436Z,18.67
2018-02-19T07:57:39.057Z,17.77
2018-02-19T08:00:08.347Z,16.57
2018-02-19T08:02:36.271Z,17.10
2018-02-19T08:05:04.109Z,16.43
2018-02-19T08:07:32.494Z,18.23
2018-02-19T08:10:00.101Z,18.07
2018-02-19T08:12:27.790Z,18.17
2018-02-19T08:14:55.400Z,17.40
2018-02-19T08:17:23.014Z,18.37
2018-02-19T08:19:50.675Z,18.27
2018-02-19T08:22:18.339Z,19.77
2018-02-19T08:24:46.007Z,18.03
2018-02-19T08:27:13.646Z,17.47
2018-02-19T08:29:41.348Z,17.00
2018-02-19T08:32:08.964Z,16.60
2018-02-19T08:34:36.556Z,16.63
2018-02-19T08:37:04.082Z,18.80
2018-02-19T08:39:31.674Z,15.47
2018-02-19T08:41:59.204Z,16.73
2018-02-19T08:44:26.755Z,16.80
2018-02-19T08:46:54.733Z,17.70
2018-02-19T08:49:22.306Z,17.17
2018-02-19T08:51:49.834Z,17.53
2018-02-19T08:54:17.939Z,14.50
2018-02-19T08:56:45.679Z,16.60
2018-02-19T08:59:13.230Z,16.30
2018-02-19T09:01:40.766Z,18.73
2018-02-19T09:04:08.363Z,15.23
2018-02-19T09:06:36.019Z,16.20
2018-02-19T09:09:03.898Z,16.40
2018-02-19T09:11:31.539Z,18.10
2018-02-19T09:13:59.054Z,15.80
2018-02-19T09:16:26.906Z,16.43
2018-02-19T09:18:54.529Z,15.60
2018-02-19T09:21:22.187Z,14.33
2018-02-19T09:23:49.704Z,16.00
2018-02-19T09:26:17.525Z,15.50
2018-02-19T09:28:45.176Z,16.40
2018-02-19T09:31:14.438Z,16.17
2018-02-19T09:33:42.367Z,15.07
2018-02-19T09:36:10.084Z,15.30
2018-02-19T09:38:38.060Z,16.80
2018-02-19T09:41:05.602Z,16.60
2018-02-19T09:43:33.631Z,19.80
2018-02-19T09:46:02.471Z,14.30
2018-02-19T09:48:30.207Z,17.00
2018-02-19T09:50:57.967Z,15.33
2018-02-19T09:53:25.540Z,15.03
2018-02-19T09:55:53.551Z,15.00
2018-02-19T09:58:21.188Z,18.10
2018-02-19T10:00:48.718Z,18.93
2018-02-19T10:03:16.304Z,17.90
2018-02-19T10:05:44.237Z,16.87
2018-02-19T10:08:12.223Z,16.40
2018-02-19T10:10:39.796Z,14.73
2018-02-19T10:13:07.780Z,14.87
2018-02-19T10:15:35.641Z,16.10
2018-02-19T10:18:03.329Z,16.07
2018-02-19T10:20:30.986Z,14.97
2018-02-19T10:22:58.621Z,16.40
2018-02-19T10:25:26.380Z,18.07
2018-02-19T10:27:56.747Z,13.93
2018-02-19T10:30:24.297Z,16.00
2018-02-19T10:32:51.978Z,17.67
2018-02-19T10:35:19.587Z,14.97
2018-02-19T10:37:47.301Z,14.70
2018-02-19T10:40:14.937Z,16.73
2018-02-19T10:42:42.633Z,13.63
2018-02-19T10:45:10.223Z,16.00
2018-02-19T10:47:38.167Z,16.63
2018-02-19T10:50:05.860Z,14.60
2018-02-19T10:52:33.440Z,20.50
2018-02-19T10:55:01.088Z,15.70
2018-02-19T10:57:28.933Z,14.20
2018-02-19T10:59:56.863Z,13.83
2018-02-19T11:02:24.487Z,14.57
2018-02-19T11:04:52.164Z,13.97
2018-02-19T11:07:19.815Z,16.63
2018-02-19T11:09:47.448Z,14.03
2018-02-19T11:12:15.120Z,13.87
2018-02-19T11:14:42.771Z,15.03
2018-02-19T11:17:10.661Z,13.93
2018-02-19T11:19:38.345Z,16.50
2018-02-19T11:22:05.985Z,13.00
2018-02-19T11:24:44.130Z,16.77
2018-02-19T11:27:12.090Z,14.20
2018-02-19T11:29:39.620Z,15.10
2018-02-19T11:32:07.235Z,14.93
2018-02-19T11:34:35.174Z,13.90
2018-02-19T11:37:02.786Z,12.83
2018-02-19T11:39:30.442Z,14.03
2018-02-19T11:41:58.132Z,16.30
2018-02-19T11:44:25.763Z,15.80
2018-02-19T11:46:53.426Z,19.87
2018-02-19T11:49:21.069Z,15.00
2018-02-19T11:51:48.579Z,14.03
2018-02-19T11:54:16.440Z,16.20
2018-02-19T11:56:44.086Z,12.47
2018-02-19T11:59:11.924Z,13.33
2018-02-19T12:01:39.383Z,12.83
2018-02-19T12:04:06.932Z,13.60
2018-02-19T12:06:34.888Z,13.70
2018-02-19T12:09:02.682Z,13.30
2018-02-19T12:11:30.427Z,12.37
2018-02-19T12:14:02.429Z,12.80
2018-02-19T12:16:30.089Z,13.53
2018-02-19T12:18:57.731Z,13.97
2018-02-19T12:21:25.459Z,12.70
2018-02-19T12:23:53.038Z,12.47
2018-02-19T12:26:21.159Z,11.70
2018-02-19T12:28:48.806Z,11.83
2018-02-19T12:31:16.411Z,15.23
2018-02-19T12:33:44.181Z,12.87
2018-02-19T12:36:12.268Z,12.27
2018-02-19T12:38:39.828Z,12.93
2018-02-19T12:41:07.462Z,14.07
2018-02-19T12:43:35.248Z,10.50
2018-02-19T12:46:03.202Z,12.23
2018-02-19T12:48:31.015Z,13.00
2018-02-19T12:50:58.575Z,12.10
2018-02-19T12:53:26.230Z,12.87
2018-02-19T12:55:53.875Z,13.47
2018-02-19T12:58:21.534Z,12.73
2018-02-19T13:00:49.229Z,12.77
2018-02-19T13:03:16.855Z,12.40
2018-02-19T13:05:44.563Z,11.17
2018-02-19T13:08:12.192Z,13.13
2018-02-19T13:10:39.880Z,12.73
2018-02-19T13:13:07.503Z,11.93
2018-02-19T13:15:35.162Z,12.10
2018-02-19T13:18:02.821Z,12.23
2018-02-19T13:20:30.503Z,12.70
2018-02-19T13:22:58.176Z,12.13
2018-02-19T13:25:26.282Z,10.60
2018-02-19T13:27:54.276Z,12.43
2018-02-19T13:30:26.551Z,11.00
2018-02-19T13:32:54.174Z,13.70
2018-02-19T13:35:21.783Z,12.20
2018-02-19T13:37:49.464Z,12.53
2018-02-19T13:40:17.124Z,10.57
2018-02-19T13:42:44.750Z,10.50
2018-02-19T13:45:12.410Z,12.40
2018-02-19T13:47:40.952Z,11.60
2018-02-19T13:50:08.880Z,11.80
2018-02-19T13:52:36.430Z,9.97
2018-02-19T13:55:04.103Z,10.40
2018-02-19T13:57:31.741Z,8.90
2018-02-19T13:59:59.423Z,10.23
2018-02-19T14:02:27.081Z,10.63
2018-02-19T14:04:54.723Z,12.63
2018-02-19T14:07:22.434Z,11.53
2018-02-19T14:09:50.069Z,10.17
2018-02-19T14:12:17.750Z,11.47
2018-02-19T14:14:45.334Z,12.40
2018-02-19T14:17:12.883Z,11.27
2018-02-19T14:19:40.564Z,11.70
2018-02-19T14:22:08.574Z,9.50
2018-02-19T14:24:36.210Z,10.60
2018-02-19T14:27:03.942Z,10.20
2018-02-19T14:29:31.544Z,12.00
2018-02-19T14:31:59.159Z,11.23
2018-02-19T14:34:27.076Z,10.20
2018-02-19T14:36:56.620Z,10.90
2018-02-19T14:39:24.244Z,12.17
2018-02-19T14:41:51.914Z,10.87
2018-02-19T14:44:19.536Z,11.93
2018-02-19T14:46:47.199Z,11.27
2018-02-19T14:49:15.132Z,11.53
2018-02-19T14:51:42.776Z,10.40
2018-02-19T14:54:10.428Z,12.07
2018-02-19T14:56:38.047Z,11.37
2018-02-19T14:59:05.760Z,13.57
2018-02-19T15:01:34.315Z,11.30
2018-02-19T15:04:01.864Z,12.10
2018-02-19T15:06:29.535Z,9.50
2018-02-19T15:08:57.212Z,10.87
2018-02-19T15:11:24.827Z,10.47
2018-02-19T15:13:52.375Z,11.67
2018-02-19T15:16:20.395Z,12.60
2018-02-19T15:18:48.052Z,12.30
2018-02-19T15:21:15.670Z,11.23
2018-02-19T15:23:44.591Z,11.53
2018-02-19T15:26:12.235Z,12.00
2018-02-19T15:28:39.930Z,12.40
2018-02-19T15:31:07.616Z,10.40
2018-02-19T15:33:35.251Z,11.17
2018-02-19T15:36:02.873Z,12.53
2018-02-19T15:38:30.453Z,11.90
2018-02-19T15:40:58.004Z,13.10
2018-02-19T15:43:25.687Z,11.33
2018-02-19T15:45:56.585Z,10.60
2018-02-19T15:48:24.147Z,10.20
2018-02-19T15:50:52.119Z,10.87
2018-02-19T15:53:19.797Z,10.97
2018-02-19T15:55:47.442Z,11.00
2018-02-19T15:58:20.684Z,12.00
2018-02-19T16:00:48.271Z,10.60
2018-02-19T16:03:15.960Z,11.50
2018-02-19T16:05:43.622Z,10.07
2018-02-19T16:08:11.251Z,10.40
2018-02-19T16:10:39.597Z,9.70
2018-02-19T16:13:07.200Z,11.13
2018-02-19T16:15:34.749Z,10.97
2018-02-19T16:18:02.753Z,10.50
2018-02-19T16:20:30.399Z,9.63
2018-02-19T16:23:02.588Z,11.80
2018-02-19T16:25:30.245Z,14.70
2018-02-19T16:27:57.961Z,11.40
2018-02-19T16:30:25.991Z,10.07
2018-02-19T16:32:53.688Z,10.87
2018-02-19T16:35:21.708Z,10.60
2018-02-19T16:37:49.371Z,9.43
2018-02-19T16:40:17.032Z,10.80
2018-02-19T16:42:44.655Z,10.20
2018-02-19T16:45:12.911Z,11.20
2018-02-19T16:47:40.448Z,10.90
2018-02-19T16:50:08.685Z,10.73
2018-02-19T16:52:36.645Z,11.93
2018-02-19T16:55:04.270Z,11.43
2018-02-19T16:57:31.892Z,12.43
2018-02-19T16:59:59.935Z,11.07
2018-02-19T17:02:32.518Z,11.10
2018-02-19T17:05:02.647Z,11.07
2018-02-19T17:07:30.272Z,12.63
2018-02-19T17:09:58.119Z,11.30
2018-02-19T17:12:25.675Z,16.30
2018-02-19T17:14:53.264Z,11.40
2018-02-19T17:17:20.968Z,10.00
2018-02-19T17:19:48.616Z,9.77
2018-02-19T17:22:16.286Z,10.77
2018-02-19T17:24:43.922Z,10.63
2018-02-19T17:27:11.591Z,10.23
2018-02-19T17:29:50.380Z,14.40
2018-02-19T17:32:18.364Z,10.07
2018-02-19T17:34:46.048Z,12.87
2018-02-19T17:37:13.730Z,12.10
2018-02-19T17:39:41.356Z,12.47
2018-02-19T17:42:09.018Z,10.50
2018-02-19T17:44:36.696Z,10.93
2018-02-19T17:47:04.388Z,12.17
2018-02-19T17:49:32.715Z,12.87
2018-02-19T17:52:00.328Z,12.33
2018-02-19T17:54:28.012Z,13.03
2018-02-19T17:56:55.994Z,10.60
2018-02-19T17:59:23.716Z,11.83
2018-02-19T18:01:51.298Z,12.23
2018-02-19T18:04:18.864Z,11.17
2018-02-19T18:06:46.897Z,12.80
2018-02-19T18:09:14.524Z,12.30
2018-02-19T18:11:42.176Z,10.07
2018-02-19T18:14:09.851Z,11.30
2018-02-19T18:16:37.474Z,11.53
2018-02-19T18:19:08.672Z,13.17
2018-02-19T18:21:36.279Z,10.27
2018-02-19T18:24:08.666Z,12.23
2018-02-19T18:26:37.008Z,11.63
2018-02-19T18:29:04.600Z,11.80
2018-02-19T18:31:32.754Z,16.50
2018-02-19T18:34:01.054Z,13.10
2018-02-19T18:36:28.630Z,15.07
2018-02-19T18:38:56.494Z,12.47
2018-02-19T18:41:24.214Z,13.23
2018-02-19T18:43:52.293Z,14.50
2018-02-19T18:46:20.282Z,14.37
2018-02-19T18:48:47.960Z,12.50
2018-02-19T18:51:15.599Z,11.77
2018-02-19T18:53:43.258Z,11.70
2018-02-19T18:56:10.940Z,13.17
2018-02-19T18:58:38.605Z,14.57
2018-02-19T19:01:06.230Z,11.03
2018-02-19T19:03:33.753Z,11.30
2018-02-19T19:06:01.434Z,13.10
2018-02-19T19:08:41.381Z,14.50
2018-02-19T19:11:09.414Z,14.83
2018-02-19T19:13:37.035Z,16.83
2018-02-19T19:16:04.744Z,13.73
2018-02-19T19:18:32.379Z,12.40
2018-02-19T19:21:00.035Z,13.47
2018-02-19T19:23:27.753Z,16.23
2018-02-19T19:25:55.325Z,15.70
2018-02-19T19:28:22.859Z,12.53
2018-02-19T19:30:50.776Z,12.47
2018-02-19T19:33:18.941Z,13.23
2018-02-19T19:35:47.081Z,12.80
2018-02-19T19:38:16.106Z,15.50
2018-02-19T19:40:45.471Z,15.07
2018-02-19T19:43:13.672Z,16.30
2018-02-19T19:45:42.310Z,14.70
2018-02-19T19:48:10.673Z,14.20
2018-02-19T19:50:39.074Z,17.10
2018-02-19T19:53:07.805Z,16.30
2018-02-19T19:55:36.095Z,15.80
2018-02-19T19:58:04.314Z,15.10
2018-02-19T20:00:33.054Z,15.83
2018-02-19T20:03:01.284Z,13.83
2018-02-19T20:05:29.579Z,13.97
2018-02-19T20:07:58.275Z,14.27
2018-02-19T20:10:26.680Z,15.80
2018-02-19T20:12:55.029Z,16.87
2018-02-19T20:15:23.211Z,14.60
2018-02-19T20:17:57.590Z,16.17
2018-02-19T20:20:25.875Z,17.57
2018-02-19T20:22:57.420Z,16.93
2018-02-19T20:25:25.703Z,16.83
2018-02-19T20:27:53.863Z,16.60
2018-02-19T20:30:22.156Z,18.07
2018-02-19T20:32:50.357Z,17.63
2018-02-19T20:35:18.056Z,19.47
2018-02-19T20:37:45.661Z,15.37
2018-02-19T20:40:13.202Z,15.33
2018-02-19T20:42:40.860Z,17.57
2018-02-19T20:45:08.435Z,16.10
2018-02-19T20:47:35.986Z,18.27
2018-02-19T20:50:03.583Z,16.00
2018-02-19T20:52:31.117Z,15.07
2018-02-19T20:54:58.675Z,18.30
2018-02-19T20:57:26.223Z,16.00
2018-02-19T20:59:53.900Z,18.27
2018-02-19T21:02:21.436Z,16.33
2018-02-19T21:04:49.079Z,18.33
2018-02-19T21:07:16.631Z,16.53
2018-02-19T21:09:44.648Z,15.13
2018-02-19T21:12:12.192Z,17.53
2018-02-19T21:14:39.859Z,15.77
2018-02-19T21:17:07.503Z,15.20
2018-02-19T21:19:35.063Z,17.20
2018-02-19T21:22:02.725Z,19.70
2018-02-19T21:24:30.264Z,16.70
2018-02-19T21:26:57.821Z,17.90
2018-02-19T21:29:25.766Z,19.00
2018-02-19T21:31:53.332Z,17.10
2018-02-19T21:34:21.047Z,17.53
2018-02-19T21:36:50.903Z,15.87
2018-02-19T21:39:18.443Z,15.93
2018-02-19T21:41:46.002Z,19.63
2018-02-19T21:44:13.643Z,18.63
2018-02-19T21:46:41.291Z,20.13
2018-02-19T21:49:08.952Z,17.70
2018-02-19T21:51:36.586Z,13.60
2018-02-19T21:54:04.495Z,17.67
2018-02-19T21:56:32.131Z,17.70
2018-02-19T21:58:59.830Z,16.50
2018-02-19T22:01:27.471Z,15.67
2018-02-19T22:03:55.139Z,17.13
2018-02-19T22:06:22.683Z,16.83
2018-02-19T22:08:50.257Z,18.77
2018-02-19T22:11:20.743Z,19.07
2018-02-19T22:13:48.440Z,18.30
2018-02-19T22:16:16.112Z,18.17
2018-02-19T22:18:43.744Z,17.27
2018-02-19T22:21:11.295Z,18.83
2018-02-19T22:23:38.843Z,17.97
2018-02-19T22:26:06.511Z,17.40
2018-02-19T22:28:38.698Z,16.70
2018-02-19T22:31:06.278Z,18.97
2018-02-19T22:33:33.845Z,14.87
2018-02-19T22:36:01.470Z,15.90
2018-02-19T22:38:29.182Z,17.00
2018-02-19T22:40:56.771Z,18.53
2018-02-19T22:43:24.419Z,15.60
2018-02-19T22:45:51.984Z,20.23
2018-02-19T22:48:19.979Z,19.27
2018-02-19T22:50:47.511Z,16.70
2018-02-19T22:53:15.624Z,21.13
2018-02-19T22:55:43.173Z,17.13
2018-02-19T22:58:10.867Z,15.57
2018-02-19T23:00:38.491Z,17.60
2018-02-19T23:03:06.133Z,19.00
2018-02-19T23:05:33.703Z,17.40
2018-02-19T23:08:01.242Z,19.23
2018-02-19T23:10:28.794Z,15.80
2018-02-19T23:12:56.782Z,18.07
2018-02-19T23:15:24.434Z,16.43
2018-02-19T23:17:52.130Z,16.60
2018-02-19T23:20:20.806Z,16.00
2018-02-19T23:22:48.331Z,15.50
2018-02-19T23:25:15.878Z,15.23
2018-02-19T23:27:44.801Z,18.67
2018-02-19T23:30:12.454Z,20.53
2018-02-19T23:32:40.003Z,18.90
2018-02-19T23:35:07.663Z,21.10
2018-02-19T23:37:35.226Z,18.27
2018-02-19T23:40:02.764Z,19.47
2018-02-19T23:42:30.769Z,21.40
2018-02-19T23:44:58.294Z,18.87
2018-02-19T23:47:26.293Z,19.60
2018-02-19T23:49:53.923Z,25.50
2018-02-19T23:52:21.874Z,16.87
2018-02-19T23:54:49.454Z,20.53
2018-02-19T23:57:17.440Z,19.37
2018-02-19T23:59:44.983Z,20.23
